Paris, IL

1:47 PM CST on December 04, 2016 (GMT -0600)
Edgar County | | Change Station

Elev 653 ft 39.70 °N, 87.67 °W | Updated 12 minutes ago

Rain
Rain
37 °F
Feels Like 37 °F
N
0
Wind Variable Wind from North

Today
High -- | Low -- °F
--% Chance of Precip.
Yesterday
High -- | Low -- °F
Precip. -- in
Pressure 29.92 in
Visibility 1.8 miles
Clouds Overcast 600 ft
Dew Point 37 °F
Humidity 99%
Rainfall 0.17 in
Snow Depth Not available.
6:55 AM 4:26 PM
Waxing Crescent, 25% visible
METAR KPRG 041935Z AUTO 00000KT 1 3/4SM RA OVC006 03/03 A2992 RMK AO2 P0005 T00280027
Pressure 29.92 in
Visibility 1.8 miles
Clouds Overcast 600 ft
Dew Point 37 °F
Humidity 99%
Rainfall 0.17 in
Snow Depth Not available.
6:55 AM 4:26 PM
Waxing Crescent, 25% visible
METAR KPRG 041935Z AUTO 00000KT 1 3/4SM RA OVC006 03/03 A2992 RMK AO2 P0005 T00280027

10-Day Weather Forecast

Almanac

Astronomy

Dec. 04, 2016 Rise Set
Actual Time
Civil Twilight
Nautical Twilight
Astronomical Twilight
Moon
Length of Visible Light
Length of Day
Tomorrow will be .
, % of the Moon is Illuminated

Today's Extremes

State Highs State Lows

Community

WunderPhotos

Upload Photos

1,955,652 photos uploaded!

WunderBlog® & News

Nearby

Air Quality

  Air Quality AQ Index Pollutant
Not available.

Snow Depth

Station Depth Elevation

Earthquake Activity

City Distance Mag. Time & Date
Minimum magnitude displayed is 2.5.

Coastal Water Temperatures

Place Temperature

Stations

Nearby Weather Stations

Station Location Temp. Windchill Dew Point Humidity Wind Precip. Elev Updated Type
                   

Watches & Warnings

There are currently no watches in effect.